sensor_id;sensor_type;location;lat;lon;timestamp;pressure;altitude;pressure_sealevel;temperature
4944;BMP280;2487;52.224;11.006;2022-07-29T00:00:04;51635.47;;;-142.39
4944;BMP280;2487;52.224;11.006;2022-07-29T00:02:30;51635.47;;;-142.39
4944;BMP280;2487;52.224;11.006;2022-07-29T00:04:57;51611.19;;;-142.39
4944;BMP280;2487;52.224;11.006;2022-07-29T00:07:24;51597.00;;;-142.39
4944;BMP280;2487;52.224;11.006;2022-07-29T00:09:49;51592.97;;;-142.39
4944;BMP280;2487;52.224;11.006;2022-07-29T00:12:15;51615.22;;;-142.39
4944;BMP280;2487;52.224;11.006;2022-07-29T00:14:41;51621.28;;;-142.39
4944;BMP280;2487;52.224;11.006;2022-07-29T00:17:07;51615.22;;;-142.39
4944;BMP280;2487;52.224;11.006;2022-07-29T00:19:33;51590.94;;;-142.39
4944;BMP280;2487;52.224;11.006;2022-07-29T00:22:00;51639.50;;;-142.39
4944;BMP280;2487;52.224;11.006;2022-07-29T00:24:26;51611.19;;;-142.39
4944;BMP280;2487;52.224;11.006;2022-07-29T00:26:52;51603.09;;;-142.39
4944;BMP280;2487;52.224;11.006;2022-07-29T00:29:18;51601.06;;;-142.39
4944;BMP280;2487;52.224;11.006;2022-07-29T00:31:44;51597.00;;;-142.39
4944;BMP280;2487;52.224;11.006;2022-07-29T00:34:10;51590.94;;;-142.39
4944;BMP280;2487;52.224;11.006;2022-07-29T00:36:56;51623.31;;;-142.39
4944;BMP280;2487;52.224;11.006;2022-07-29T00:39:21;51574.75;;;-142.39
4944;BMP280;2487;52.224;11.006;2022-07-29T00:41:47;51590.94;;;-142.39
4944;BMP280;2487;52.224;11.006;2022-07-29T00:44:14;51603.09;;;-142.39
4944;BMP280;2487;52.224;11.006;2022-07-29T00:46:39;51578.78;;;-142.39
4944;BMP280;2487;52.224;11.006;2022-07-29T00:49:05;51611.19;;;-142.39
4944;BMP280;2487;52.224;11.006;2022-07-29T00:51:35;51595.00;;;-142.39
4944;BMP280;2487;52.224;11.006;2022-07-29T00:54:01;51609.16;;;-142.39
4944;BMP280;2487;52.224;11.006;2022-07-29T00:56:30;51566.66;;;-142.39
4944;BMP280;2487;52.224;11.006;2022-07-29T00:58:56;51619.28;;;-142.39
4944;BMP280;2487;52.224;11.006;2022-07-29T01:01:22;51590.94;;;-142.39
4944;BMP280;2487;52.224;11.006;2022-07-29T01:03:48;51584.88;;;-142.39
4944;BMP280;2487;52.224;11.006;2022-07-29T01:06:15;51586.91;;;-142.39
4944;BMP280;2487;52.224;11.006;2022-07-29T01:11:28;51645.56;;;-142.39
4944;BMP280;2487;52.224;11.006;2022-07-29T01:13:56;51603.09;;;-142.39
4944;BMP280;2487;52.224;11.006;2022-07-29T01:16:30;51586.91;;;-142.39
4944;BMP280;2487;52.224;11.006;2022-07-29T01:19:01;51609.16;;;-142.39
4944;BMP280;2487;52.224;11.006;2022-07-29T01:21:50;51611.19;;;-142.39
4944;BMP280;2487;52.224;11.006;2022-07-29T01:26:59;51607.13;;;-142.39
4944;BMP280;2487;52.224;11.006;2022-07-29T01:29:30;51582.84;;;-142.39
4944;BMP280;2487;52.224;11.006;2022-07-29T01:32:20;51605.09;;;-142.39
4944;BMP280;2487;52.224;11.006;2022-07-29T01:40:14;51615.22;;;-142.39
4944;BMP280;2487;52.224;11.006;2022-07-29T01:42:46;51607.13;;;-142.39
4944;BMP280;2487;52.224;11.006;2022-07-29T01:51:19;51659.75;;;-142.39
4944;BMP280;2487;52.224;11.006;2022-07-29T01:56:18;51592.97;;;-142.39
4944;BMP280;2487;52.224;11.006;2022-07-29T01:58:45;51580.81;;;-142.39
4944;BMP280;2487;52.224;11.006;2022-07-29T02:01:13;51617.25;;;-142.39
4944;BMP280;2487;52.224;11.006;2022-07-29T02:03:42;51615.22;;;-142.39
4944;BMP280;2487;52.224;11.006;2022-07-29T02:06:10;51554.50;;;-142.39
4944;BMP280;2487;52.224;11.006;2022-07-29T02:08:37;51613.19;;;-142.39
4944;BMP280;2487;52.224;11.006;2022-07-29T02:11:04;51603.09;;;-142.39
4944;BMP280;2487;52.224;11.006;2022-07-29T02:13:31;51627.38;;;-142.39
4944;BMP280;2487;52.224;11.006;2022-07-29T02:16:00;51629.38;;;-142.39
4944;BMP280;2487;52.224;11.006;2022-07-29T02:18:28;51566.66;;;-142.39
4944;BMP280;2487;52.224;11.006;2022-07-29T02:20:56;51595.00;;;-142.39
4944;BMP280;2487;52.224;11.006;2022-07-29T02:23:23;51637.47;;;-142.39
4944;BMP280;2487;52.224;11.006;2022-07-29T02:25:52;51607.13;;;-142.39
4944;BMP280;2487;52.224;11.006;2022-07-29T02:28:20;51603.09;;;-142.39
4944;BMP280;2487;52.224;11.006;2022-07-29T02:30:49;51603.09;;;-142.39
4944;BMP280;2487;52.224;11.006;2022-07-29T02:33:17;51611.19;;;-142.39
4944;BMP280;2487;52.224;11.006;2022-07-29T02:35:46;51597.00;;;-142.39
4944;BMP280;2487;52.224;11.006;2022-07-29T02:38:15;51562.59;;;-142.39
4944;BMP280;2487;52.224;11.006;2022-07-29T02:41:09;51568.69;;;-142.39
4944;BMP280;2487;52.224;11.006;2022-07-29T02:43:37;51627.38;;;-142.39
4944;BMP280;2487;52.224;11.006;2022-07-29T02:46:05;51635.47;;;-142.39
4944;BMP280;2487;52.224;11.006;2022-07-29T02:48:39;51607.13;;;-142.39
4944;BMP280;2487;52.224;11.006;2022-07-29T02:51:19;51605.09;;;-142.39
4944;BMP280;2487;52.224;11.006;2022-07-29T02:53:51;51570.69;;;-142.39
4944;BMP280;2487;52.224;11.006;2022-07-29T02:56:24;51590.94;;;-142.39
4944;BMP280;2487;52.224;11.006;2022-07-29T02:58:54;51566.66;;;-142.39
4944;BMP280;2487;52.224;11.006;2022-07-29T03:01:23;51595.00;;;-142.39
4944;BMP280;2487;52.224;11.006;2022-07-29T03:03:52;51625.34;;;-142.39
4944;BMP280;2487;52.224;11.006;2022-07-29T03:06:20;51570.69;;;-142.39
4944;BMP280;2487;52.224;11.006;2022-07-29T03:08:48;51586.91;;;-142.39
4944;BMP280;2487;52.224;11.006;2022-07-29T03:11:15;51578.78;;;-142.39
4944;BMP280;2487;52.224;11.006;2022-07-29T03:13:42;51588.91;;;-142.39
4944;BMP280;2487;52.224;11.006;2022-07-29T03:16:09;51619.28;;;-142.39
4944;BMP280;2487;52.224;11.006;2022-07-29T03:18:36;51643.56;;;-142.39
4944;BMP280;2487;52.224;11.006;2022-07-29T03:21:03;51582.84;;;-142.39
4944;BMP280;2487;52.224;11.006;2022-07-29T03:23:29;51597.00;;;-142.39
4944;BMP280;2487;52.224;11.006;2022-07-29T03:25:55;51651.66;;;-142.39
4944;BMP280;2487;52.224;11.006;2022-07-29T03:28:21;51599.03;;;-142.39
4944;BMP280;2487;52.224;11.006;2022-07-29T03:30:48;51623.31;;;-142.39
4944;BMP280;2487;52.224;11.006;2022-07-29T03:33:14;51599.03;;;-142.39
4944;BMP280;2487;52.224;11.006;2022-07-29T03:35:41;51590.94;;;-142.39
4944;BMP280;2487;52.224;11.006;2022-07-29T03:38:07;51572.72;;;-142.39
4944;BMP280;2487;52.224;11.006;2022-07-29T03:40:42;51578.78;;;-142.39
4944;BMP280;2487;52.224;11.006;2022-07-29T03:43:11;51572.72;;;-142.39
4944;BMP280;2487;52.224;11.006;2022-07-29T03:45:38;51615.22;;;-142.39
4944;BMP280;2487;52.224;11.006;2022-07-29T03:48:12;51588.91;;;-142.39
4944;BMP280;2487;52.224;11.006;2022-07-29T03:50:39;51590.94;;;-142.39
4944;BMP280;2487;52.224;11.006;2022-07-29T03:53:05;51584.88;;;-142.39
4944;BMP280;2487;52.224;11.006;2022-07-29T03:55:33;51570.69;;;-142.39
4944;BMP280;2487;52.224;11.006;2022-07-29T03:58:02;51566.66;;;-142.39
4944;BMP280;2487;52.224;11.006;2022-07-29T04:00:28;51601.06;;;-142.39
4944;BMP280;2487;52.224;11.006;2022-07-29T04:02:55;51599.03;;;-142.39
4944;BMP280;2487;52.224;11.006;2022-07-29T04:05:21;51611.19;;;-142.39
4944;BMP280;2487;52.224;11.006;2022-07-29T04:07:47;51597.00;;;-142.39
4944;BMP280;2487;52.224;11.006;2022-07-29T04:10:14;51590.94;;;-142.39
4944;BMP280;2487;52.224;11.006;2022-07-29T04:12:41;51546.41;;;-142.39
4944;BMP280;2487;52.224;11.006;2022-07-29T04:15:07;51609.16;;;-142.39
4944;BMP280;2487;52.224;11.006;2022-07-29T04:17:33;51570.69;;;-142.39
4944;BMP280;2487;52.224;11.006;2022-07-29T04:19:58;51576.78;;;-142.39
4944;BMP280;2487;52.224;11.006;2022-07-29T04:22:24;51613.19;;;-142.39
4944;BMP280;2487;52.224;11.006;2022-07-29T04:24:50;51578.78;;;-142.39
4944;BMP280;2487;52.224;11.006;2022-07-29T04:27:16;51564.63;;;-142.39
4944;BMP280;2487;52.224;11.006;2022-07-29T04:29:41;51595.00;;;-142.39
4944;BMP280;2487;52.224;11.006;2022-07-29T04:32:07;51599.03;;;-142.39
4944;BMP280;2487;52.224;11.006;2022-07-29T04:34:33;51588.91;;;-142.39
4944;BMP280;2487;52.224;11.006;2022-07-29T04:36:58;51588.91;;;-142.39
4944;BMP280;2487;52.224;11.006;2022-07-29T04:39:24;51592.97;;;-142.39
4944;BMP280;2487;52.224;11.006;2022-07-29T04:41:51;51560.59;;;-142.39
4944;BMP280;2487;52.224;11.006;2022-07-29T04:44:17;51556.53;;;-142.39
4944;BMP280;2487;52.224;11.006;2022-07-29T04:46:43;51578.78;;;-142.39
4944;BMP280;2487;52.224;11.006;2022-07-29T04:49:08;51578.78;;;-142.39
4944;BMP280;2487;52.224;11.006;2022-07-29T04:51:34;51560.59;;;-142.39
4944;BMP280;2487;52.224;11.006;2022-07-29T04:54:00;51542.38;;;-142.39
4944;BMP280;2487;52.224;11.006;2022-07-29T04:56:26;51570.69;;;-142.39
4944;BMP280;2487;52.224;11.006;2022-07-29T04:58:52;51566.66;;;-142.39
4944;BMP280;2487;52.224;11.006;2022-07-29T05:01:18;51590.94;;;-142.39
4944;BMP280;2487;52.224;11.006;2022-07-29T05:03:44;51550.47;;;-142.39
4944;BMP280;2487;52.224;11.006;2022-07-29T05:06:10;51552.50;;;-142.39
4944;BMP280;2487;52.224;11.006;2022-07-29T05:08:37;51570.69;;;-142.39
4944;BMP280;2487;52.224;11.006;2022-07-29T05:11:03;51592.97;;;-142.39
4944;BMP280;2487;52.224;11.006;2022-07-29T05:13:29;51601.06;;;-142.39
4944;BMP280;2487;52.224;11.006;2022-07-29T05:15:55;51550.47;;;-142.39
4944;BMP280;2487;52.224;11.006;2022-07-29T05:18:21;51540.34;;;-142.39
4944;BMP280;2487;52.224;11.006;2022-07-29T05:20:47;51544.41;;;-142.39
4944;BMP280;2487;52.224;11.006;2022-07-29T05:23:12;51552.50;;;-142.39
4944;BMP280;2487;52.224;11.006;2022-07-29T05:25:38;51599.03;;;-142.39
4944;BMP280;2487;52.224;11.006;2022-07-29T05:28:04;51592.97;;;-142.39
4944;BMP280;2487;52.224;11.006;2022-07-29T05:30:30;51550.47;;;-142.39
4944;BMP280;2487;52.224;11.006;2022-07-29T05:32:55;51544.41;;;-142.39
4944;BMP280;2487;52.224;11.006;2022-07-29T05:35:21;51566.66;;;-142.39
4944;BMP280;2487;52.224;11.006;2022-07-29T05:37:47;51554.50;;;-142.39
4944;BMP280;2487;52.224;11.006;2022-07-29T05:40:13;51625.34;;;-142.39
4944;BMP280;2487;52.224;11.006;2022-07-29T05:42:38;51590.94;;;-142.39
4944;BMP280;2487;52.224;11.006;2022-07-29T05:45:05;51560.59;;;-142.39
4944;BMP280;2487;52.224;11.006;2022-07-29T05:47:31;51558.56;;;-142.39
4944;BMP280;2487;52.224;11.006;2022-07-29T05:49:56;51609.16;;;-142.39
4944;BMP280;2487;52.224;11.006;2022-07-29T05:52:23;51562.59;;;-142.39
4944;BMP280;2487;52.224;11.006;2022-07-29T05:54:49;51542.38;;;-142.39
4944;BMP280;2487;52.224;11.006;2022-07-29T05:57:16;51568.69;;;-142.39
4944;BMP280;2487;52.224;11.006;2022-07-29T05:59:42;51562.59;;;-142.39
4944;BMP280;2487;52.224;11.006;2022-07-29T06:02:07;51554.50;;;-142.39
4944;BMP280;2487;52.224;11.006;2022-07-29T06:04:33;51546.41;;;-142.39
4944;BMP280;2487;52.224;11.006;2022-07-29T06:06:59;51544.41;;;-142.39
4944;BMP280;2487;52.224;11.006;2022-07-29T06:09:24;51562.59;;;-142.39
4944;BMP280;2487;52.224;11.006;2022-07-29T06:11:51;51536.31;;;-142.39
4944;BMP280;2487;52.224;11.006;2022-07-29T06:14:17;51548.44;;;-142.39
4944;BMP280;2487;52.224;11.006;2022-07-29T06:16:43;51534.28;;;-142.39
4944;BMP280;2487;52.224;11.006;2022-07-29T06:19:09;51526.19;;;-142.39
4944;BMP280;2487;52.224;11.006;2022-07-29T06:21:35;51528.22;;;-142.39
4944;BMP280;2487;52.224;11.006;2022-07-29T06:24:00;51542.38;;;-142.39
4944;BMP280;2487;52.224;11.006;2022-07-29T06:26:26;51528.22;;;-142.39
4944;BMP280;2487;52.224;11.006;2022-07-29T06:28:52;51524.16;;;-142.39
4944;BMP280;2487;52.224;11.006;2022-07-29T06:31:17;51540.34;;;-142.39
4944;BMP280;2487;52.224;11.006;2022-07-29T06:33:43;51562.59;;;-142.39
4944;BMP280;2487;52.224;11.006;2022-07-29T06:36:09;51540.34;;;-142.39
4944;BMP280;2487;52.224;11.006;2022-07-29T06:38:34;51542.38;;;-142.39
4944;BMP280;2487;52.224;11.006;2022-07-29T06:41:00;51558.56;;;-142.39
4944;BMP280;2487;52.224;11.006;2022-07-29T06:43:40;51532.25;;;-142.39
4944;BMP280;2487;52.224;11.006;2022-07-29T06:46:09;51528.22;;;-142.39
4944;BMP280;2487;52.224;11.006;2022-07-29T06:48:35;51544.41;;;-142.39
4944;BMP280;2487;52.224;11.006;2022-07-29T06:51:05;51542.38;;;-142.39
4944;BMP280;2487;52.224;11.006;2022-07-29T06:53:32;51528.22;;;-142.39
4944;BMP280;2487;52.224;11.006;2022-07-29T06:55:59;51550.47;;;-142.39
4944;BMP280;2487;52.224;11.006;2022-07-29T06:58:26;51512.03;;;-142.39
4944;BMP280;2487;52.224;11.006;2022-07-29T07:00:58;51546.41;;;-142.39
4944;BMP280;2487;52.224;11.006;2022-07-29T07:03:24;51526.19;;;-142.39
4944;BMP280;2487;52.224;11.006;2022-07-29T07:05:51;51518.09;;;-142.39
4944;BMP280;2487;52.224;11.006;2022-07-29T07:08:18;51503.91;;;-142.39
4944;BMP280;2487;52.224;11.006;2022-07-29T07:10:45;51530.22;;;-142.39
4944;BMP280;2487;52.224;11.006;2022-07-29T07:13:11;51564.63;;;-142.39
4944;BMP280;2487;52.224;11.006;2022-07-29T07:15:37;51548.44;;;-142.39
4944;BMP280;2487;52.224;11.006;2022-07-29T07:18:04;51520.13;;;-142.39
4944;BMP280;2487;52.224;11.006;2022-07-29T07:20:32;51538.31;;;-142.39
4944;BMP280;2487;52.224;11.006;2022-07-29T07:22:58;51497.84;;;-142.39
4944;BMP280;2487;52.224;11.006;2022-07-29T07:25:23;51522.13;;;-142.39
4944;BMP280;2487;52.224;11.006;2022-07-29T07:27:49;51510.00;;;-142.39
4944;BMP280;2487;52.224;11.006;2022-07-29T07:30:15;51512.03;;;-142.39
4944;BMP280;2487;52.224;11.006;2022-07-29T07:32:41;51532.25;;;-142.39
4944;BMP280;2487;52.224;11.006;2022-07-29T07:35:08;51481.66;;;-142.39
4944;BMP280;2487;52.224;11.006;2022-07-29T07:37:35;51495.81;;;-142.39
4944;BMP280;2487;52.224;11.006;2022-07-29T07:40:02;51487.75;;;-142.39
4944;BMP280;2487;52.224;11.006;2022-07-29T07:42:27;51479.63;;;-142.39
4944;BMP280;2487;52.224;11.006;2022-07-29T07:44:53;51429.06;;;-142.39
4944;BMP280;2487;52.224;11.006;2022-07-29T07:47:19;51449.28;;;-142.39
4944;BMP280;2487;52.224;11.006;2022-07-29T07:49:46;51457.38;;;-142.39
4944;BMP280;2487;52.224;11.006;2022-07-29T07:52:13;51473.56;;;-142.39
4944;BMP280;2487;52.224;11.006;2022-07-29T07:54:39;51449.28;;;-142.39
4944;BMP280;2487;52.224;11.006;2022-07-29T07:57:05;51443.22;;;-142.39
4944;BMP280;2487;52.224;11.006;2022-07-29T07:59:30;51453.34;;;-142.39
4944;BMP280;2487;52.224;11.006;2022-07-29T08:01:56;51467.50;;;-142.39
4944;BMP280;2487;52.224;11.006;2022-07-29T08:04:22;51441.19;;;-142.39
4944;BMP280;2487;52.224;11.006;2022-07-29T08:06:48;51420.97;;;-142.39
4944;BMP280;2487;52.224;11.006;2022-07-29T08:09:15;51455.34;;;-142.39
4944;BMP280;2487;52.224;11.006;2022-07-29T08:11:40;51455.34;;;-142.39
4944;BMP280;2487;52.224;11.006;2022-07-29T08:14:06;51441.19;;;-142.39
4944;BMP280;2487;52.224;11.006;2022-07-29T08:16:32;51457.38;;;-142.39
4944;BMP280;2487;52.224;11.006;2022-07-29T08:18:57;51427.03;;;-142.39
4944;BMP280;2487;52.224;11.006;2022-07-29T08:21:24;51465.47;;;-142.39
4944;BMP280;2487;52.224;11.006;2022-07-29T08:23:50;51467.50;;;-142.39
4944;BMP280;2487;52.224;11.006;2022-07-29T08:26:19;51447.25;;;-142.39
4944;BMP280;2487;52.224;11.006;2022-07-29T08:28:45;51429.06;;;-142.39
4944;BMP280;2487;52.224;11.006;2022-07-29T08:31:14;51433.09;;;-142.39
4944;BMP280;2487;52.224;11.006;2022-07-29T08:33:41;51414.88;;;-142.39
4944;BMP280;2487;52.224;11.006;2022-07-29T08:36:06;51404.78;;;-142.39
4944;BMP280;2487;52.224;11.006;2022-07-29T08:38:33;51451.31;;;-142.39
4944;BMP280;2487;52.224;11.006;2022-07-29T08:41:00;51441.19;;;-142.39
4944;BMP280;2487;52.224;11.006;2022-07-29T08:43:27;51435.13;;;-142.39
4944;BMP280;2487;52.224;11.006;2022-07-29T08:45:53;51416.91;;;-142.39
4944;BMP280;2487;52.224;11.006;2022-07-29T08:48:21;51406.78;;;-142.39
4944;BMP280;2487;52.224;11.006;2022-07-29T08:50:49;51402.75;;;-142.39
4944;BMP280;2487;52.224;11.006;2022-07-29T08:53:18;51429.06;;;-142.39
4944;BMP280;2487;52.224;11.006;2022-07-29T08:55:47;51418.94;;;-142.39
4944;BMP280;2487;52.224;11.006;2022-07-29T08:58:14;51364.28;;;-142.39
4944;BMP280;2487;52.224;11.006;2022-07-29T09:00:45;51356.22;;;-142.39
4944;BMP280;2487;52.224;11.006;2022-07-29T09:03:16;51360.25;;;-142.39
4944;BMP280;2487;52.224;11.006;2022-07-29T09:05:44;51354.19;;;-142.39
4944;BMP280;2487;52.224;11.006;2022-07-29T09:08:12;51352.16;;;-142.39
4944;BMP280;2487;52.224;11.006;2022-07-29T09:10:39;51360.25;;;-142.39
4944;BMP280;2487;52.224;11.006;2022-07-29T09:13:05;51400.72;;;-142.39
4944;BMP280;2487;52.224;11.006;2022-07-29T09:15:31;51350.13;;;-142.39
4944;BMP280;2487;52.224;11.006;2022-07-29T09:17:57;51398.69;;;-142.39
4944;BMP280;2487;52.224;11.006;2022-07-29T09:20:24;51372.41;;;-142.39
4944;BMP280;2487;52.224;11.006;2022-07-29T09:22:51;51360.25;;;-142.39
4944;BMP280;2487;52.224;11.006;2022-07-29T09:25:38;51366.31;;;-142.39
4944;BMP280;2487;52.224;11.006;2022-07-29T09:30:41;51354.19;;;-142.39
4944;BMP280;2487;52.224;11.006;2022-07-29T09:33:15;51350.13;;;-142.39
4944;BMP280;2487;52.224;11.006;2022-07-29T09:35:40;51311.69;;;-142.39
4944;BMP280;2487;52.224;11.006;2022-07-29T09:38:10;51340.00;;;-142.39
4944;BMP280;2487;52.224;11.006;2022-07-29T09:40:37;51335.97;;;-142.39
4944;BMP280;2487;52.224;11.006;2022-07-29T09:43:10;51313.72;;;-142.39
4944;BMP280;2487;52.224;11.006;2022-07-29T09:45:36;51321.81;;;-142.39
4944;BMP280;2487;52.224;11.006;2022-07-29T09:48:32;51299.53;;;-142.39
4944;BMP280;2487;52.224;11.006;2022-07-29T09:50:58;51291.47;;;-142.39
4944;BMP280;2487;52.224;11.006;2022-07-29T09:56:00;51293.47;;;-142.39
4944;BMP280;2487;52.224;11.006;2022-07-29T09:58:27;51263.13;;;-142.39
4944;BMP280;2487;52.224;11.006;2022-07-29T10:00:54;51293.47;;;-142.39
4944;BMP280;2487;52.224;11.006;2022-07-29T10:03:20;51293.47;;;-142.39
4944;BMP280;2487;52.224;11.006;2022-07-29T10:06:06;51317.75;;;-142.39
4944;BMP280;2487;52.224;11.006;2022-07-29T10:08:33;51325.84;;;-142.39
4944;BMP280;2487;52.224;11.006;2022-07-29T10:11:28;51327.88;;;-142.39
4944;BMP280;2487;52.224;11.006;2022-07-29T10:13:54;51317.75;;;-142.39
4944;BMP280;2487;52.224;11.006;2022-07-29T10:16:20;51283.34;;;-142.39
4944;BMP280;2487;52.224;11.006;2022-07-29T10:18:45;51305.63;;;-142.39
4944;BMP280;2487;52.224;11.006;2022-07-29T10:21:12;51281.34;;;-142.39
4944;BMP280;2487;52.224;11.006;2022-07-29T10:23:38;51313.72;;;-142.39
4944;BMP280;2487;52.224;11.006;2022-07-29T10:26:24;51289.44;;;-142.39
4944;BMP280;2487;52.224;11.006;2022-07-29T10:28:50;51311.69;;;-142.39
4944;BMP280;2487;52.224;11.006;2022-07-29T10:31:24;51305.63;;;-142.39
4944;BMP280;2487;52.224;11.006;2022-07-29T10:34:23;51333.94;;;-142.39
4944;BMP280;2487;52.224;11.006;2022-07-29T10:37:00;51333.94;;;-142.39
4944;BMP280;2487;52.224;11.006;2022-07-29T10:39:54;51295.50;;;-142.39
4944;BMP280;2487;52.224;11.006;2022-07-29T10:42:24;51360.25;;;-142.39
4944;BMP280;2487;52.224;11.006;2022-07-29T10:44:52;51301.56;;;-142.39
4944;BMP280;2487;52.224;11.006;2022-07-29T10:47:26;51329.91;;;-142.39
4944;BMP280;2487;52.224;11.006;2022-07-29T10:52:22;51352.16;;;-142.39
4944;BMP280;2487;52.224;11.006;2022-07-29T10:54:50;51340.00;;;-142.39
4944;BMP280;2487;52.224;11.006;2022-07-29T11:02:41;51372.41;;;-142.39
4944;BMP280;2487;52.224;11.006;2022-07-29T11:05:08;51358.22;;;-142.39
4944;BMP280;2487;52.224;11.006;2022-07-29T11:07:36;51352.16;;;-142.39
4944;BMP280;2487;52.224;11.006;2022-07-29T11:20:40;51390.59;;;-142.39
4944;BMP280;2487;52.224;11.006;2022-07-29T11:29:04;51394.66;;;-142.39
4944;BMP280;2487;52.224;11.006;2022-07-29T11:47:28;51396.69;;;-142.39
4944;BMP280;2487;52.224;11.006;2022-07-29T11:49:55;51406.78;;;-142.39
4944;BMP280;2487;52.224;11.006;2022-07-29T11:52:23;51402.75;;;-142.39
4944;BMP280;2487;52.224;11.006;2022-07-29T11:54:57;51342.03;;;-142.39
4944;BMP280;2487;52.224;11.006;2022-07-29T11:57:23;51392.63;;;-142.39
4944;BMP280;2487;52.224;11.006;2022-07-29T11:59:50;51410.84;;;-142.39
4944;BMP280;2487;52.224;11.006;2022-07-29T12:02:16;51372.41;;;-142.39
4944;BMP280;2487;52.224;11.006;2022-07-29T12:07:17;51398.69;;;-142.39
4944;BMP280;2487;52.224;11.006;2022-07-29T12:09:50;51350.13;;;-142.39
4944;BMP280;2487;52.224;11.006;2022-07-29T12:12:17;51374.41;;;-142.39
4944;BMP280;2487;52.224;11.006;2022-07-29T12:14:43;51380.50;;;-142.39
4944;BMP280;2487;52.224;11.006;2022-07-29T12:20:01;51380.50;;;-142.39
4944;BMP280;2487;52.224;11.006;2022-07-29T12:22:31;51439.16;;;-142.39
4944;BMP280;2487;52.224;11.006;2022-07-29T12:25:08;51394.66;;;-142.39
4944;BMP280;2487;52.224;11.006;2022-07-29T12:27:35;51402.75;;;-142.39
4944;BMP280;2487;52.224;11.006;2022-07-29T12:30:05;51404.78;;;-142.39
4944;BMP280;2487;52.224;11.006;2022-07-29T12:32:38;51408.81;;;-142.39
4944;BMP280;2487;52.224;11.006;2022-07-29T12:35:06;51425.00;;;-142.39
4944;BMP280;2487;52.224;11.006;2022-07-29T12:37:36;51408.81;;;-142.39
4944;BMP280;2487;52.224;11.006;2022-07-29T12:40:05;51400.72;;;-142.39
4944;BMP280;2487;52.224;11.006;2022-07-29T12:42:31;51390.59;;;-142.39
4944;BMP280;2487;52.224;11.006;2022-07-29T12:44:57;51390.59;;;-142.39
4944;BMP280;2487;52.224;11.006;2022-07-29T12:47:23;51433.09;;;-142.39
4944;BMP280;2487;52.224;11.006;2022-07-29T12:49:50;51427.03;;;-142.39
4944;BMP280;2487;52.224;11.006;2022-07-29T12:52:30;51416.91;;;-142.39
4944;BMP280;2487;52.224;11.006;2022-07-29T12:54:56;51384.53;;;-142.39
4944;BMP280;2487;52.224;11.006;2022-07-29T13:00:13;51396.69;;;-142.39
4944;BMP280;2487;52.224;11.006;2022-07-29T13:02:40;51431.06;;;-142.39
4944;BMP280;2487;52.224;11.006;2022-07-29T13:05:07;51418.94;;;-142.39
4944;BMP280;2487;52.224;11.006;2022-07-29T13:07:35;51398.69;;;-142.39
4944;BMP280;2487;52.224;11.006;2022-07-29T13:10:15;51410.84;;;-142.39
4944;BMP280;2487;52.224;11.006;2022-07-29T13:15:29;51392.63;;;-142.39
4944;BMP280;2487;52.224;11.006;2022-07-29T13:17:55;51410.84;;;-142.39
4944;BMP280;2487;52.224;11.006;2022-07-29T13:20:24;51416.91;;;-142.39
4944;BMP280;2487;52.224;11.006;2022-07-29T13:22:50;51416.91;;;-142.39
4944;BMP280;2487;52.224;11.006;2022-07-29T13:25:24;51429.06;;;-142.39
4944;BMP280;2487;52.224;11.006;2022-07-29T13:27:50;51435.13;;;-142.39
4944;BMP280;2487;52.224;11.006;2022-07-29T13:30:16;51420.97;;;-142.39
4944;BMP280;2487;52.224;11.006;2022-07-29T13:32:42;51362.28;;;-142.39
4944;BMP280;2487;52.224;11.006;2022-07-29T13:35:08;51404.78;;;-142.39
4944;BMP280;2487;52.224;11.006;2022-07-29T13:37:35;51453.34;;;-142.39
4944;BMP280;2487;52.224;11.006;2022-07-29T13:40:05;51400.72;;;-142.39
4944;BMP280;2487;52.224;11.006;2022-07-29T13:42:34;51412.88;;;-142.39
4944;BMP280;2487;52.224;11.006;2022-07-29T13:45:00;51402.75;;;-142.39
4944;BMP280;2487;52.224;11.006;2022-07-29T13:47:27;51406.78;;;-142.39
4944;BMP280;2487;52.224;11.006;2022-07-29T13:49:54;51427.03;;;-142.39
4944;BMP280;2487;52.224;11.006;2022-07-29T13:52:20;51437.16;;;-142.39
4944;BMP280;2487;52.224;11.006;2022-07-29T13:54:46;51384.53;;;-142.39
4944;BMP280;2487;52.224;11.006;2022-07-29T13:57:12;51410.84;;;-142.39
4944;BMP280;2487;52.224;11.006;2022-07-29T13:59:42;51435.13;;;-142.39
4944;BMP280;2487;52.224;11.006;2022-07-29T14:02:09;51425.00;;;-142.39
4944;BMP280;2487;52.224;11.006;2022-07-29T14:04:35;51404.78;;;-142.39
4944;BMP280;2487;52.224;11.006;2022-07-29T14:07:02;51394.66;;;-142.39
4944;BMP280;2487;52.224;11.006;2022-07-29T14:09:27;51412.88;;;-142.39
4944;BMP280;2487;52.224;11.006;2022-07-29T14:11:53;51352.16;;;-142.39
4944;BMP280;2487;52.224;11.006;2022-07-29T14:14:19;51370.38;;;-142.39
4944;BMP280;2487;52.224;11.006;2022-07-29T14:16:45;51394.66;;;-142.39
4944;BMP280;2487;52.224;11.006;2022-07-29T14:19:11;51408.81;;;-142.39
4944;BMP280;2487;52.224;11.006;2022-07-29T14:21:37;51378.47;;;-142.39
4944;BMP280;2487;52.224;11.006;2022-07-29T14:24:04;51368.34;;;-142.39
4944;BMP280;2487;52.224;11.006;2022-07-29T14:26:30;51374.41;;;-142.39
4944;BMP280;2487;52.224;11.006;2022-07-29T14:28:55;51386.56;;;-142.39
4944;BMP280;2487;52.224;11.006;2022-07-29T14:31:21;51402.75;;;-142.39
4944;BMP280;2487;52.224;11.006;2022-07-29T14:33:47;51380.50;;;-142.39
4944;BMP280;2487;52.224;11.006;2022-07-29T14:36:12;51364.28;;;-142.39
4944;BMP280;2487;52.224;11.006;2022-07-29T14:38:38;51368.34;;;-142.39
4944;BMP280;2487;52.224;11.006;2022-07-29T14:41:05;51384.53;;;-142.39
4944;BMP280;2487;52.224;11.006;2022-07-29T14:43:31;51374.41;;;-142.39
4944;BMP280;2487;52.224;11.006;2022-07-29T14:45:57;51406.78;;;-142.39
4944;BMP280;2487;52.224;11.006;2022-07-29T14:48:23;51380.50;;;-142.39
4944;BMP280;2487;52.224;11.006;2022-07-29T14:50:48;51378.47;;;-142.39
4944;BMP280;2487;52.224;11.006;2022-07-29T14:53:14;51368.34;;;-142.39
4944;BMP280;2487;52.224;11.006;2022-07-29T14:55:40;51376.44;;;-142.39
4944;BMP280;2487;52.224;11.006;2022-07-29T14:58:07;51414.88;;;-142.39
4944;BMP280;2487;52.224;11.006;2022-07-29T15:00:33;51376.44;;;-142.39
4944;BMP280;2487;52.224;11.006;2022-07-29T15:03:00;51372.41;;;-142.39
4944;BMP280;2487;52.224;11.006;2022-07-29T15:05:26;51358.22;;;-142.39
4944;BMP280;2487;52.224;11.006;2022-07-29T15:07:52;51396.69;;;-142.39
4944;BMP280;2487;52.224;11.006;2022-07-29T15:10:17;51366.31;;;-142.39
4944;BMP280;2487;52.224;11.006;2022-07-29T15:12:43;51368.34;;;-142.39
4944;BMP280;2487;52.224;11.006;2022-07-29T15:15:09;51400.72;;;-142.39